sensor_id;sensor_type;location;lat;lon;timestamp;pressure;altitude;pressure_sealevel;temperature;humidity
71915;BME280;60387;49.994;14.660;2023-06-22T00:02:30;97944.44;;;25.15;45.33
71915;BME280;60387;49.994;14.660;2023-06-22T00:05:04;97937.66;;;25.09;45.45
71915;BME280;60387;49.994;14.660;2023-06-22T00:07:37;97951.91;;;25.04;44.92
71915;BME280;60387;49.994;14.660;2023-06-22T00:10:11;97953.09;;;24.99;45.23
71915;BME280;60387;49.994;14.660;2023-06-22T00:12:44;97947.91;;;24.94;45.17
71915;BME280;60387;49.994;14.660;2023-06-22T00:15:17;97963.75;;;24.94;45.38
71915;BME280;60387;49.994;14.660;2023-06-22T00:17:51;97954.22;;;24.88;46.48
71915;BME280;60387;49.994;14.660;2023-06-22T00:20:25;97946.25;;;24.83;46.22
71915;BME280;60387;49.994;14.660;2023-06-22T00:22:59;97949.41;;;24.78;45.88
71915;BME280;60387;49.994;14.660;2023-06-22T00:25:32;97941.84;;;24.68;46.03
71915;BME280;60387;49.994;14.660;2023-06-22T00:28:06;97958.91;;;24.73;46.66
71915;BME280;60387;49.994;14.660;2023-06-22T00:30:40;97954.50;;;24.65;46.50
71915;BME280;60387;49.994;14.660;2023-06-22T00:33:13;97950.13;;;24.64;45.83
71915;BME280;60387;49.994;14.660;2023-06-22T00:35:46;97958.03;;;24.62;46.13
71915;BME280;60387;49.994;14.660;2023-06-22T00:38:20;97960.78;;;24.62;48.42
71915;BME280;60387;49.994;14.660;2023-06-22T00:40:53;97943.69;;;24.53;46.83
71915;BME280;60387;49.994;14.660;2023-06-22T00:43:26;97934.19;;;24.51;48.03
71915;BME280;60387;49.994;14.660;2023-06-22T00:46:00;97938.16;;;24.50;48.62
71915;BME280;60387;49.994;14.660;2023-06-22T00:48:33;97951.56;;;24.48;47.24
71915;BME280;60387;49.994;14.660;2023-06-22T00:51:07;97943.66;;;24.46;47.46
71915;BME280;60387;49.994;14.660;2023-06-22T00:53:41;97931.34;;;24.40;47.26
71915;BME280;60387;49.994;14.660;2023-06-22T00:56:14;97944.03;;;24.45;47.58
71915;BME280;60387;49.994;14.660;2023-06-22T00:58:48;97938.09;;;24.43;47.36
71915;BME280;60387;49.994;14.660;2023-06-22T01:01:21;97939.28;;;24.42;46.84
71915;BME280;60387;49.994;14.660;2023-06-22T01:03:54;97935.72;;;24.41;47.20
71915;BME280;60387;49.994;14.660;2023-06-22T01:06:32;97933.75;;;24.42;46.42
71915;BME280;60387;49.994;14.660;2023-06-22T01:09:15;97918.28;;;24.37;47.92
71915;BME280;60387;49.994;14.660;2023-06-22T01:11:54;97921.06;;;24.37;47.41
71915;BME280;60387;49.994;14.660;2023-06-22T01:15:13;97913.13;;;24.36;48.63
71915;BME280;60387;49.994;14.660;2023-06-22T01:17:27;97902.44;;;24.34;52.19
71915;BME280;60387;49.994;14.660;2023-06-22T01:20:03;97906.31;;;24.26;49.32
71915;BME280;60387;49.994;14.660;2023-06-22T01:23:06;97901.19;;;24.25;48.50
71915;BME280;60387;49.994;14.660;2023-06-22T01:25:47;97901.94;;;24.22;47.69
71915;BME280;60387;49.994;14.660;2023-06-22T01:28:53;97892.84;;;24.18;47.35
71915;BME280;60387;49.994;14.660;2023-06-22T01:31:28;97892.44;;;24.16;47.45
71915;BME280;60387;49.994;14.660;2023-06-22T01:34:03;97899.19;;;24.22;48.75
71915;BME280;60387;49.994;14.660;2023-06-22T01:36:38;97880.94;;;24.14;47.58
71915;BME280;60387;49.994;14.660;2023-06-22T01:39:12;97898.38;;;24.18;47.84
71915;BME280;60387;49.994;14.660;2023-06-22T01:41:47;97899.88;;;24.08;47.95
71915;BME280;60387;49.994;14.660;2023-06-22T01:44:21;97896.69;;;24.03;47.40
71915;BME280;60387;49.994;14.660;2023-06-22T01:46:55;97894.25;;;23.98;47.84
71915;BME280;60387;49.994;14.660;2023-06-22T01:49:29;97894.25;;;23.98;47.72
71915;BME280;60387;49.994;14.660;2023-06-22T01:52:03;97895.03;;;23.95;47.42
71915;BME280;60387;49.994;14.660;2023-06-22T01:54:38;97897.03;;;23.94;47.64
71915;BME280;60387;49.994;14.660;2023-06-22T01:57:11;97910.06;;;23.94;47.66
71915;BME280;60387;49.994;14.660;2023-06-22T02:00:04;97908.41;;;23.86;47.54
71915;BME280;60387;49.994;14.660;2023-06-22T02:02:49;97914.34;;;23.88;47.57
71915;BME280;60387;49.994;14.660;2023-06-22T02:05:31;97921.81;;;23.84;47.41
71915;BME280;60387;49.994;14.660;2023-06-22T02:10:40;97916.56;;;23.75;49.00
71915;BME280;60387;49.994;14.660;2023-06-22T02:13:15;97927.19;;;23.70;48.28
71915;BME280;60387;49.994;14.660;2023-06-22T02:15:50;97924.00;;;23.64;47.78
71915;BME280;60387;49.994;14.660;2023-06-22T02:18:24;97927.13;;;23.63;48.35
71915;BME280;60387;49.994;14.660;2023-06-22T02:20:57;97932.63;;;23.59;49.63
71915;BME280;60387;49.994;14.660;2023-06-22T02:23:30;97938.50;;;23.54;48.49
71915;BME280;60387;49.994;14.660;2023-06-22T02:26:03;97937.31;;;23.52;48.38
71915;BME280;60387;49.994;14.660;2023-06-22T02:28:37;97938.06;;;23.49;49.98
71915;BME280;60387;49.994;14.660;2023-06-22T02:31:10;97938.00;;;23.42;48.95
71915;BME280;60387;49.994;14.660;2023-06-22T02:33:43;97932.38;;;23.35;48.68
71915;BME280;60387;49.994;14.660;2023-06-22T02:36:17;97935.91;;;23.32;48.24
71915;BME280;60387;49.994;14.660;2023-06-22T02:38:50;97935.09;;;23.32;48.45
71915;BME280;60387;49.994;14.660;2023-06-22T02:41:26;97937.88;;;23.32;51.21
71915;BME280;60387;49.994;14.660;2023-06-22T02:43:59;97931.13;;;23.29;49.76
71915;BME280;60387;49.994;14.660;2023-06-22T02:46:33;97932.66;;;23.23;49.29
71915;BME280;60387;49.994;14.660;2023-06-22T02:49:06;97932.66;;;23.23;48.99
71915;BME280;60387;49.994;14.660;2023-06-22T02:51:44;97926.69;;;23.21;48.95
71915;BME280;60387;49.994;14.660;2023-06-22T02:54:17;97924.31;;;23.20;48.76
71915;BME280;60387;49.994;14.660;2023-06-22T02:56:50;97924.31;;;23.20;48.27
71915;BME280;60387;49.994;14.660;2023-06-22T02:59:24;97925.09;;;23.20;48.64
71915;BME280;60387;49.994;14.660;2023-06-22T03:01:57;97925.53;;;23.22;48.60
71915;BME280;60387;49.994;14.660;2023-06-22T03:04:30;97914.09;;;23.24;48.86
71915;BME280;60387;49.994;14.660;2023-06-22T03:07:04;97913.72;;;23.25;48.65
71915;BME280;60387;49.994;14.660;2023-06-22T03:09:37;97909.78;;;23.26;48.91
71915;BME280;60387;49.994;14.660;2023-06-22T03:12:11;97911.00;;;23.29;49.77
71915;BME280;60387;49.994;14.660;2023-06-22T03:14:44;97909.00;;;23.29;49.04
71915;BME280;60387;49.994;14.660;2023-06-22T03:17:17;97899.13;;;23.28;48.53
71915;BME280;60387;49.994;14.660;2023-06-22T03:19:51;97909.44;;;23.31;48.87
71915;BME280;60387;49.994;14.660;2023-06-22T03:22:24;97909.84;;;23.33;48.52
71915;BME280;60387;49.994;14.660;2023-06-22T03:24:57;97913.88;;;23.39;49.29
71915;BME280;60387;49.994;14.660;2023-06-22T03:27:31;97917.81;;;23.42;49.04
71915;BME280;60387;49.994;14.660;2023-06-22T03:30:05;97917.91;;;23.48;48.92
71915;BME280;60387;49.994;14.660;2023-06-22T03:32:39;97929.44;;;23.57;48.37
71915;BME280;60387;49.994;14.660;2023-06-22T03:35:12;97933.09;;;23.65;48.46
71915;BME280;60387;49.994;14.660;2023-06-22T03:37:45;97934.91;;;23.87;48.67
71915;BME280;60387;49.994;14.660;2023-06-22T03:40:19;97928.06;;;24.21;48.27
71915;BME280;60387;49.994;14.660;2023-06-22T03:42:52;97921.19;;;24.55;47.36
71915;BME280;60387;49.994;14.660;2023-06-22T03:45:25;97943.16;;;24.95;46.82
71915;BME280;60387;49.994;14.660;2023-06-22T03:48:00;97929.44;;;25.23;46.90
71915;BME280;60387;49.994;14.660;2023-06-22T03:50:33;97938.66;;;25.58;46.75
71915;BME280;60387;49.994;14.660;2023-06-22T03:53:06;97939.13;;;25.95;46.41
71915;BME280;60387;49.994;14.660;2023-06-22T03:55:50;97941.88;;;26.37;46.13
71915;BME280;60387;49.994;14.660;2023-06-22T03:58:24;97935.91;;;26.67;45.89
71915;BME280;60387;49.994;14.660;2023-06-22T04:00:57;97935.44;;;26.82;45.30
71915;BME280;60387;49.994;14.660;2023-06-22T04:03:30;97935.41;;;26.96;45.61
71915;BME280;60387;49.994;14.660;2023-06-22T04:06:04;97932.19;;;27.01;45.53
71915;BME280;60387;49.994;14.660;2023-06-22T04:08:37;97933.72;;;27.23;45.36
71915;BME280;60387;49.994;14.660;2023-06-22T04:11:10;97931.22;;;27.49;44.90
71915;BME280;60387;49.994;14.660;2023-06-22T04:13:44;97928.66;;;27.79;44.64
71915;BME280;60387;49.994;14.660;2023-06-22T04:16:17;97921.31;;;28.03;44.87
71915;BME280;60387;49.994;14.660;2023-06-22T04:18:50;97920.31;;;28.23;44.58
71915;BME280;60387;49.994;14.660;2023-06-22T04:21:24;97918.63;;;28.40;44.57
71915;BME280;60387;49.994;14.660;2023-06-22T04:23:57;97924.44;;;28.56;44.57
71915;BME280;60387;49.994;14.660;2023-06-22T04:26:30;97918.25;;;28.75;44.11
71915;BME280;60387;49.994;14.660;2023-06-22T04:29:04;97923.56;;;28.99;43.85
71915;BME280;60387;49.994;14.660;2023-06-22T04:31:37;97915.72;;;29.21;43.67
71915;BME280;60387;49.994;14.660;2023-06-22T04:34:11;97922.66;;;29.39;43.60
71915;BME280;60387;49.994;14.660;2023-06-22T04:36:44;97918.50;;;29.54;43.91
71915;BME280;60387;49.994;14.660;2023-06-22T04:39:17;97918.28;;;29.68;43.39
71915;BME280;60387;49.994;14.660;2023-06-22T04:41:51;97919.25;;;29.85;43.27
71915;BME280;60387;49.994;14.660;2023-06-22T04:44:24;97921.38;;;30.00;43.45
71915;BME280;60387;49.994;14.660;2023-06-22T04:46:58;97923.59;;;30.12;42.94
71915;BME280;60387;49.994;14.660;2023-06-22T04:49:32;97930.72;;;30.17;43.27
71915;BME280;60387;49.994;14.660;2023-06-22T04:52:07;97938.56;;;30.25;43.27
71915;BME280;60387;49.994;14.660;2023-06-22T04:54:41;97933.56;;;30.36;43.20
71915;BME280;60387;49.994;14.660;2023-06-22T04:57:14;97942.34;;;30.38;42.99
71915;BME280;60387;49.994;14.660;2023-06-22T04:59:47;97945.50;;;30.40;43.25
71915;BME280;60387;49.994;14.660;2023-06-22T05:02:20;97950.97;;;30.47;42.82
71915;BME280;60387;49.994;14.660;2023-06-22T05:04:54;97952.78;;;30.57;43.02
71915;BME280;60387;49.994;14.660;2023-06-22T05:07:27;97949.88;;;30.64;43.09
71915;BME280;60387;49.994;14.660;2023-06-22T05:10:03;97954.38;;;30.81;42.92
71915;BME280;60387;49.994;14.660;2023-06-22T05:12:37;97955.66;;;30.96;43.02
71915;BME280;60387;49.994;14.660;2023-06-22T05:15:10;97949.31;;;31.15;43.00
71915;BME280;60387;49.994;14.660;2023-06-22T05:17:43;97966.91;;;31.35;42.45
71915;BME280;60387;49.994;14.660;2023-06-22T05:20:17;97967.81;;;31.48;42.28
71915;BME280;60387;49.994;14.660;2023-06-22T05:22:50;97965.50;;;31.62;42.39
71915;BME280;60387;49.994;14.660;2023-06-22T05:25:23;97963.63;;;31.75;42.08
71915;BME280;60387;49.994;14.660;2023-06-22T05:27:57;97972.56;;;31.86;42.04
71915;BME280;60387;49.994;14.660;2023-06-22T05:30:30;97965.50;;;31.98;41.93
71915;BME280;60387;49.994;14.660;2023-06-22T05:33:03;97970.88;;;32.08;41.30
71915;BME280;60387;49.994;14.660;2023-06-22T05:35:37;97978.91;;;32.26;41.68
71915;BME280;60387;49.994;14.660;2023-06-22T05:38:10;97984.41;;;32.45;40.87
71915;BME280;60387;49.994;14.660;2023-06-22T05:40:43;97986.50;;;32.57;41.06
71915;BME280;60387;49.994;14.660;2023-06-22T05:43:17;97996.31;;;32.65;41.02
71915;BME280;60387;49.994;14.660;2023-06-22T05:45:50;97992.41;;;32.79;40.97
71915;BME280;60387;49.994;14.660;2023-06-22T05:48:23;97985.19;;;32.94;40.58
71915;BME280;60387;49.994;14.660;2023-06-22T05:50:57;97994.78;;;33.09;40.51
71915;BME280;60387;49.994;14.660;2023-06-22T05:53:30;97993.53;;;33.26;40.68
71915;BME280;60387;49.994;14.660;2023-06-22T05:56:04;97997.06;;;33.42;39.79
71915;BME280;60387;49.994;14.660;2023-06-22T05:58:37;98004.97;;;33.60;39.82
71915;BME280;60387;49.994;14.660;2023-06-22T06:01:10;98013.09;;;33.70;39.39
71915;BME280;60387;49.994;14.660;2023-06-22T06:03:43;98003.81;;;33.86;39.95
71915;BME280;60387;49.994;14.660;2023-06-22T06:06:17;98004.28;;;33.97;39.37
71915;BME280;60387;49.994;14.660;2023-06-22T06:08:50;98003.72;;;34.02;39.30
71915;BME280;60387;49.994;14.660;2023-06-22T06:11:23;98002.25;;;34.10;39.00
71915;BME280;60387;49.994;14.660;2023-06-22T06:13:57;98009.81;;;34.25;39.12
71915;BME280;60387;49.994;14.660;2023-06-22T06:16:30;98005.78;;;34.39;38.98
71915;BME280;60387;49.994;14.660;2023-06-22T06:19:03;98011.25;;;34.55;38.98
71915;BME280;60387;49.994;14.660;2023-06-22T06:21:36;98012.50;;;34.79;38.51
71915;BME280;60387;49.994;14.660;2023-06-22T06:24:10;98014.47;;;35.03;37.94
71915;BME280;60387;49.994;14.660;2023-06-22T06:26:44;98017.13;;;35.19;37.44
71915;BME280;60387;49.994;14.660;2023-06-22T06:29:17;98007.03;;;35.30;38.07
71915;BME280;60387;49.994;14.660;2023-06-22T06:31:50;98007.53;;;35.50;37.84
71915;BME280;60387;49.994;14.660;2023-06-22T06:34:23;98004.84;;;35.68;37.80
71915;BME280;60387;49.994;14.660;2023-06-22T06:36:57;98012.28;;;35.84;37.29
71915;BME280;60387;49.994;14.660;2023-06-22T06:39:30;98009.38;;;35.96;36.91
71915;BME280;60387;49.994;14.660;2023-06-22T06:42:04;98013.50;;;36.04;35.85
71915;BME280;60387;49.994;14.660;2023-06-22T06:44:38;97995.41;;;36.14;36.64
71915;BME280;60387;49.994;14.660;2023-06-22T06:47:11;97993.91;;;36.31;35.97
71915;BME280;60387;49.994;14.660;2023-06-22T06:49:44;97987.34;;;36.34;34.93
71915;BME280;60387;49.994;14.660;2023-06-22T06:52:18;97987.34;;;36.34;35.72
71915;BME280;60387;49.994;14.660;2023-06-22T06:54:51;97980.28;;;36.39;36.01
71915;BME280;60387;49.994;14.660;2023-06-22T06:57:24;97996.00;;;36.49;35.51
71915;BME280;60387;49.994;14.660;2023-06-22T06:59:57;97991.34;;;36.64;36.05
71915;BME280;60387;49.994;14.660;2023-06-22T07:02:31;97989.06;;;36.89;35.97
71915;BME280;60387;49.994;14.660;2023-06-22T07:05:04;97978.44;;;37.11;34.82
71915;BME280;60387;49.994;14.660;2023-06-22T07:07:38;97984.69;;;37.24;32.79
71915;BME280;60387;49.994;14.660;2023-06-22T07:10:11;97992.22;;;37.18;32.83
71915;BME280;60387;49.994;14.660;2023-06-22T07:12:44;97988.25;;;36.98;33.43
71915;BME280;60387;49.994;14.660;2023-06-22T07:15:18;97984.34;;;36.77;33.49
71915;BME280;60387;49.994;14.660;2023-06-22T07:17:51;97979.28;;;36.72;32.98
71915;BME280;60387;49.994;14.660;2023-06-22T07:20:24;97963.59;;;36.71;31.80
71915;BME280;60387;49.994;14.660;2023-06-22T07:22:57;97964.47;;;36.50;32.42
71915;BME280;60387;49.994;14.660;2023-06-22T07:25:31;97948.56;;;36.26;31.45
71915;BME280;60387;49.994;14.660;2023-06-22T07:28:05;97967.19;;;36.14;32.95
71915;BME280;60387;49.994;14.660;2023-06-22T07:30:39;97956.00;;;36.11;33.02
71915;BME280;60387;49.994;14.660;2023-06-22T07:33:12;97964.28;;;36.36;33.30
71915;BME280;60387;49.994;14.660;2023-06-22T07:35:45;97953.06;;;36.63;33.18
71915;BME280;60387;49.994;14.660;2023-06-22T07:38:18;97955.59;;;36.70;32.19
71915;BME280;60387;49.994;14.660;2023-06-22T07:40:52;97939.09;;;36.68;32.04
71915;BME280;60387;49.994;14.660;2023-06-22T07:43:25;97940.38;;;36.67;33.13
71915;BME280;60387;49.994;14.660;2023-06-22T07:45:58;97945.72;;;36.74;32.59
71915;BME280;60387;49.994;14.660;2023-06-22T07:48:32;97954.13;;;36.56;31.61
71915;BME280;60387;49.994;14.660;2023-06-22T07:51:05;97948.00;;;36.40;31.79
71915;BME280;60387;49.994;14.660;2023-06-22T07:53:42;97949.25;;;36.39;32.65
71915;BME280;60387;49.994;14.660;2023-06-22T07:56:15;97944.22;;;36.34;32.79
71915;BME280;60387;49.994;14.660;2023-06-22T07:58:48;97945.63;;;36.38;32.18
71915;BME280;60387;49.994;14.660;2023-06-22T08:01:22;97927.53;;;36.18;32.79
71915;BME280;60387;49.994;14.660;2023-06-22T08:03:55;97928.94;;;36.13;32.62
71915;BME280;60387;49.994;14.660;2023-06-22T08:06:30;97918.31;;;36.17;32.94
71915;BME280;60387;49.994;14.660;2023-06-22T08:09:03;97925.19;;;36.25;32.83
71915;BME280;60387;49.994;14.660;2023-06-22T08:11:37;97914.88;;;36.40;32.64
71915;BME280;60387;49.994;14.660;2023-06-22T08:14:10;97912.72;;;36.44;31.80
71915;BME280;60387;49.994;14.660;2023-06-22T08:16:43;97923.06;;;36.56;31.64
71915;BME280;60387;49.994;14.660;2023-06-22T08:19:16;97930.78;;;36.56;31.39
71915;BME280;60387;49.994;14.660;2023-06-22T08:21:50;97922.59;;;36.49;31.68
71915;BME280;60387;49.994;14.660;2023-06-22T08:24:23;97911.16;;;36.52;31.90
71915;BME280;60387;49.994;14.660;2023-06-22T08:26:56;97920.28;;;36.65;31.91
71915;BME280;60387;49.994;14.660;2023-06-22T08:29:29;97913.38;;;36.75;31.75
71915;BME280;60387;49.994;14.660;2023-06-22T08:32:03;97924.78;;;36.54;31.15
71915;BME280;60387;49.994;14.660;2023-06-22T08:34:36;97913.50;;;36.54;31.25
71915;BME280;60387;49.994;14.660;2023-06-22T08:37:10;97902.34;;;36.50;31.07
71915;BME280;60387;49.994;14.660;2023-06-22T08:39:43;97902.34;;;36.50;30.82
71915;BME280;60387;49.994;14.660;2023-06-22T08:42:17;97913.97;;;36.34;30.88
71915;BME280;60387;49.994;14.660;2023-06-22T08:44:50;97894.19;;;36.34;31.36
71915;BME280;60387;49.994;14.660;2023-06-22T08:47:23;97895.38;;;36.15;31.21
71915;BME280;60387;49.994;14.660;2023-06-22T08:49:56;97899.41;;;36.05;32.27
71915;BME280;60387;49.994;14.660;2023-06-22T08:52:30;97896.88;;;35.98;31.76
71915;BME280;60387;49.994;14.660;2023-06-22T08:55:04;97896.88;;;35.98;32.42
71915;BME280;60387;49.994;14.660;2023-06-22T08:57:37;97898.28;;;36.03;32.42
71915;BME280;60387;49.994;14.660;2023-06-22T09:00:11;97906.06;;;36.20;32.12
71915;BME280;60387;49.994;14.660;2023-06-22T09:02:45;97906.84;;;36.30;32.15
71915;BME280;60387;49.994;14.660;2023-06-22T09:05:18;97905.16;;;36.32;32.44
71915;BME280;60387;49.994;14.660;2023-06-22T09:07:52;97891.81;;;36.24;32.11
71915;BME280;60387;49.994;14.660;2023-06-22T09:10:25;97885.38;;;36.32;32.03
71915;BME280;60387;49.994;14.660;2023-06-22T09:12:59;97896.81;;;36.29;31.66
71915;BME280;60387;49.994;14.660;2023-06-22T09:15:32;97889.19;;;36.47;31.41
71915;BME280;60387;49.994;14.660;2023-06-22T09:18:05;97900.06;;;36.67;31.08
71915;BME280;60387;49.994;14.660;2023-06-22T09:20:38;97882.00;;;36.91;31.78
71915;BME280;60387;49.994;14.660;2023-06-22T09:23:12;97876.38;;;37.09;30.80
71915;BME280;60387;49.994;14.660;2023-06-22T09:25:45;97880.94;;;37.16;30.75
71915;BME280;60387;49.994;14.660;2023-06-22T09:28:18;97880.44;;;37.08;30.52
71915;BME280;60387;49.994;14.660;2023-06-22T09:30:51;97868.38;;;36.99;30.98
71915;BME280;60387;49.994;14.660;2023-06-22T09:33:26;97872.28;;;36.92;31.32
71915;BME280;60387;49.994;14.660;2023-06-22T09:35:59;97880.44;;;36.81;30.88
71915;BME280;60387;49.994;14.660;2023-06-22T09:38:38;97857.38;;;36.83;30.56
71915;BME280;60387;49.994;14.660;2023-06-22T09:41:12;97872.13;;;36.96;31.23
71915;BME280;60387;49.994;14.660;2023-06-22T09:43:45;97870.09;;;37.05;31.14
71915;BME280;60387;49.994;14.660;2023-06-22T09:46:18;97869.00;;;36.94;31.36
71915;BME280;60387;49.994;14.660;2023-06-22T09:48:51;97856.72;;;36.97;30.38
71915;BME280;60387;49.994;14.660;2023-06-22T09:51:25;97850.63;;;37.07;30.40
71915;BME280;60387;49.994;14.660;2023-06-22T09:53:58;97859.38;;;37.27;30.85
71915;BME280;60387;49.994;14.660;2023-06-22T09:56:31;97865.81;;;37.28;30.61
71915;BME280;60387;49.994;14.660;2023-06-22T09:59:04;97875.22;;;37.43;31.00
71915;BME280;60387;49.994;14.660;2023-06-22T10:01:38;97865.53;;;37.17;30.59
71915;BME280;60387;49.994;14.660;2023-06-22T10:04:11;97863.09;;;37.51;30.60
71915;BME280;60387;49.994;14.660;2023-06-22T10:06:47;97860.88;;;37.64;30.53
71915;BME280;60387;49.994;14.660;2023-06-22T10:09:20;97853.44;;;37.76;30.18
71915;BME280;60387;49.994;14.660;2023-06-22T10:11:54;97866.75;;;37.84;30.26
71915;BME280;60387;49.994;14.660;2023-06-22T10:14:27;97857.59;;;37.98;30.08
71915;BME280;60387;49.994;14.660;2023-06-22T10:17:00;97860.09;;;38.05;30.26
71915;BME280;60387;49.994;14.660;2023-06-22T10:19:33;97851.88;;;38.07;29.94
71915;BME280;60387;49.994;14.660;2023-06-22T10:22:07;97863.69;;;38.06;29.81
71915;BME280;60387;49.994;14.660;2023-06-22T10:24:40;97854.72;;;38.07;29.68
71915;BME280;60387;49.994;14.660;2023-06-22T10:27:13;97852.25;;;38.24;29.80
71915;BME280;60387;49.994;14.660;2023-06-22T10:29:47;97854.78;;;38.45;29.92
71915;BME280;60387;49.994;14.660;2023-06-22T10:32:20;97846.69;;;38.76;29.94
71915;BME280;60387;49.994;14.660;2023-06-22T10:34:54;97856.16;;;39.11;29.51
71915;BME280;60387;49.994;14.660;2023-06-22T10:37:27;97842.78;;;39.26;29.10
71915;BME280;60387;49.994;14.660;2023-06-22T10:40:00;97849.53;;;39.43;28.78
71915;BME280;60387;49.994;14.660;2023-06-22T10:42:34;97847.25;;;39.61;28.48
71915;BME280;60387;49.994;14.660;2023-06-22T10:45:08;97852.34;;;39.72;26.97
71915;BME280;60387;49.994;14.660;2023-06-22T10:47:41;97841.63;;;39.96;26.94
71915;BME280;60387;49.994;14.660;2023-06-22T10:50:15;97848.59;;;40.29;27.74
71915;BME280;60387;49.994;14.660;2023-06-22T10:52:48;97842.13;;;40.49;26.92
71915;BME280;60387;49.994;14.660;2023-06-22T10:55:21;97848.28;;;40.62;26.02
71915;BME280;60387;49.994;14.660;2023-06-22T10:57:55;97843.63;;;40.64;25.62
71915;BME280;60387;49.994;14.660;2023-06-22T11:00:28;97837.63;;;40.57;26.54
71915;BME280;60387;49.994;14.660;2023-06-22T11:03:01;97817.25;;;40.58;26.70
71915;BME280;60387;49.994;14.660;2023-06-22T11:05:34;97825.56;;;40.87;26.54
71915;BME280;60387;49.994;14.660;2023-06-22T11:08:08;97818.91;;;41.16;26.36
71915;BME280;60387;49.994;14.660;2023-06-22T11:10:41;97825.09;;;41.40;25.73
71915;BME280;60387;49.994;14.660;2023-06-22T11:13:14;97828.31;;;41.53;25.13
71915;BME280;60387;49.994;14.660;2023-06-22T11:15:47;97823.94;;;41.57;25.79
71915;BME280;60387;49.994;14.660;2023-06-22T11:18:21;97816.84;;;41.42;24.80
71915;BME280;60387;49.994;14.660;2023-06-22T11:20:54;97811.00;;;41.25;25.49
71915;BME280;60387;49.994;14.660;2023-06-22T11:23:27;97811.41;;;41.13;24.38
71915;BME280;60387;49.994;14.660;2023-06-22T11:26:01;97802.78;;;41.07;24.28
71915;BME280;60387;49.994;14.660;2023-06-22T11:28:34;97803.63;;;41.13;24.70
71915;BME280;60387;49.994;14.660;2023-06-22T11:31:07;97811.03;;;41.31;24.81
71915;BME280;60387;49.994;14.660;2023-06-22T11:33:40;97803.06;;;41.35;24.76
71915;BME280;60387;49.994;14.660;2023-06-22T11:36:14;97801.41;;;41.54;24.53
71915;BME280;60387;49.994;14.660;2023-06-22T11:38:48;97797.22;;;41.75;24.76
71915;BME280;60387;49.994;14.660;2023-06-22T11:41:21;97797.63;;;41.99;23.65
71915;BME280;60387;49.994;14.660;2023-06-22T11:43:55;97799.28;;;42.16;23.47
71915;BME280;60387;49.994;14.660;2023-06-22T11:46:28;97786.59;;;42.12;22.95
71915;BME280;60387;49.994;14.660;2023-06-22T11:49:01;97783.69;;;42.06;23.53
71915;BME280;60387;49.994;14.660;2023-06-22T11:51:35;97766.56;;;42.01;22.86
71915;BME280;60387;49.994;14.660;2023-06-22T11:54:08;97785.38;;;41.87;22.76
71915;BME280;60387;49.994;14.660;2023-06-22T11:56:41;97765.22;;;41.54;23.72
71915;BME280;60387;49.994;14.660;2023-06-22T11:59:14;97763.41;;;41.26;23.55
71915;BME280;60387;49.994;14.660;2023-06-22T12:01:48;97764.78;;;41.05;24.09
71915;BME280;60387;49.994;14.660;2023-06-22T12:04:21;97760.56;;;40.95;23.10
71915;BME280;60387;49.994;14.660;2023-06-22T12:06:54;97768.53;;;40.91;23.51
71915;BME280;60387;49.994;14.660;2023-06-22T12:09:27;97767.53;;;40.74;23.63
71915;BME280;60387;49.994;14.660;2023-06-22T12:12:01;97774.69;;;40.64;23.56
71915;BME280;60387;49.994;14.660;2023-06-22T12:14:34;97759.75;;;40.49;24.23
71915;BME280;60387;49.994;14.660;2023-06-22T12:17:07;97754.81;;;40.44;24.88
71915;BME280;60387;49.994;14.660;2023-06-22T12:19:41;97762.19;;;40.56;25.33
71915;BME280;60387;49.994;14.660;2023-06-22T12:22:14;97749.47;;;40.51;24.80
71915;BME280;60387;49.994;14.660;2023-06-22T12:24:47;97751.22;;;40.49;24.11
71915;BME280;60387;49.994;14.660;2023-06-22T12:27:20;97740.72;;;40.35;24.57
71915;BME280;60387;49.994;14.660;2023-06-22T12:29:54;97748.13;;;40.47;24.79
71915;BME280;60387;49.994;14.660;2023-06-22T12:32:27;97749.81;;;40.59;24.76
71915;BME280;60387;49.994;14.660;2023-06-22T12:35:00;97747.59;;;40.68;24.44
71915;BME280;60387;49.994;14.660;2023-06-22T12:37:33;97745.16;;;40.56;24.85
71915;BME280;60387;49.994;14.660;2023-06-22T12:40:07;97738.31;;;40.48;24.49
71915;BME280;60387;49.994;14.660;2023-06-22T12:42:41;97746.13;;;40.33;25.15
71915;BME280;60387;49.994;14.660;2023-06-22T12:45:14;97728.34;;;40.12;25.56
71915;BME280;60387;49.994;14.660;2023-06-22T12:47:47;97717.63;;;40.02;25.69
71915;BME280;60387;49.994;14.660;2023-06-22T12:50:20;97723.97;;;39.97;25.46
71915;BME280;60387;49.994;14.660;2023-06-22T12:52:54;97706.66;;;39.75;25.51
71915;BME280;60387;49.994;14.660;2023-06-22T12:55:27;97713.13;;;39.75;26.14
71915;BME280;60387;49.994;14.660;2023-06-22T12:58:00;97720.81;;;39.89;25.94
71915;BME280;60387;49.994;14.660;2023-06-22T13:00:33;97721.09;;;40.11;25.36
71915;BME280;60387;49.994;14.660;2023-06-22T13:03:07;97707.44;;;40.35;24.93
71915;BME280;60387;49.994;14.660;2023-06-22T13:05:40;97707.19;;;40.59;24.04
71915;BME280;60387;49.994;14.660;2023-06-22T13:08:13;97693.25;;;40.86;24.49
71915;BME280;60387;49.994;14.660;2023-06-22T13:10:46;97692.72;;;41.13;24.69
71915;BME280;60387;49.994;14.660;2023-06-22T13:13:20;97690.41;;;41.12;24.15
71915;BME280;60387;49.994;14.660;2023-06-22T13:15:53;97687.56;;;41.12;24.30
71915;BME280;60387;49.994;14.660;2023-06-22T13:18:26;97687.78;;;41.08;24.79
71915;BME280;60387;49.994;14.660;2023-06-22T13:21:00;97692.19;;;41.09;25.02
71915;BME280;60387;49.994;14.660;2023-06-22T13:23:35;97677.16;;;41.03;23.29
71915;BME280;60387;49.994;14.660;2023-06-22T13:26:08;97673.97;;;40.90;23.27
71915;BME280;60387;49.994;14.660;2023-06-22T13:28:42;97668.59;;;40.98;23.93